<?xml version="1.0" encoding="UTF-8" ?>
<gpx version="1.1" xmlns:xsi="http://www.w3.org/2001/XMLSchema-instance" 
    xmlns="http://www.topografix.com/GPX/1/1" 
    xsi:schemaLocation="http://www.topografix.com/GPX/1/1 http://www.topografix.com/GPX/1/1/gpx.xsd" 
    creator="Openrunner - https://www.openrunner.com" >	<trk>
						<name>4162681-B - GR 4 etape 2 juin</name>
						<trkseg>
					<trkpt lat="43.746360" lon="6.345170">
						<ele>881</ele>
						<time>2021-12-01T16:52:16Z</time>
					</trkpt>
					<trkpt lat="43.746390" lon="6.342890">
						<ele>885</ele>
						<time>2021-12-01T16:55:56Z</time>
					</trkpt>
					<trkpt lat="43.746110" lon="6.341710">
						<ele>885</ele>
						<time>2021-12-01T16:57:56Z</time>
					</trkpt>
					<trkpt lat="43.745600" lon="6.341220">
						<ele>858</ele>
						<time>2021-12-01T16:59:18Z</time>
					</trkpt>
					<trkpt lat="43.745770" lon="6.340420">
						<ele>870</ele>
						<time>2021-12-01T17:00:39Z</time>
					</trkpt>
					<trkpt lat="43.745490" lon="6.339480">
						<ele>851</ele>
						<time>2021-12-01T17:02:17Z</time>
					</trkpt>
					<trkpt lat="43.745630" lon="6.339050">
						<ele>859</ele>
						<time>2021-12-01T17:03:02Z</time>
					</trkpt>
					<trkpt lat="43.745300" lon="6.338000">
						<ele>835</ele>
						<time>2021-12-01T17:04:53Z</time>
					</trkpt>
					<trkpt lat="43.745690" lon="6.337100">
						<ele>844</ele>
						<time>2021-12-01T17:06:34Z</time>
					</trkpt>
					<trkpt lat="43.745660" lon="6.336800">
						<ele>828</ele>
						<time>2021-12-01T17:07:03Z</time>
					</trkpt>
					<trkpt lat="43.746620" lon="6.335720">
						<ele>858</ele>
						<time>2021-12-01T17:09:48Z</time>
					</trkpt>
					<trkpt lat="43.746470" lon="6.334970">
						<ele>829</ele>
						<time>2021-12-01T17:11:03Z</time>
					</trkpt>
					<trkpt lat="43.746740" lon="6.334070">
						<ele>854</ele>
						<time>2021-12-01T17:12:37Z</time>
					</trkpt>
					<trkpt lat="43.746700" lon="6.333170">
						<ele>836</ele>
						<time>2021-12-01T17:14:04Z</time>
					</trkpt>
					<trkpt lat="43.746900" lon="6.332400">
						<ele>818</ele>
						<time>2021-12-01T17:15:23Z</time>
					</trkpt>
					<trkpt lat="43.746910" lon="6.331130">
						<ele>755</ele>
						<time>2021-12-01T17:17:25Z</time>
					</trkpt>
					<trkpt lat="43.747400" lon="6.330320">
						<ele>823</ele>
						<time>2021-12-01T17:19:07Z</time>
					</trkpt>
					<trkpt lat="43.747440" lon="6.329540">
						<ele>803</ele>
						<time>2021-12-01T17:20:23Z</time>
					</trkpt>
					<trkpt lat="43.748360" lon="6.328390">
						<ele>801</ele>
						<time>2021-12-01T17:23:08Z</time>
					</trkpt>
					<trkpt lat="43.749270" lon="6.329140">
						<ele>834</ele>
						<time>2021-12-01T17:25:29Z</time>
					</trkpt>
					<trkpt lat="43.750110" lon="6.329650">
						<ele>838</ele>
						<time>2021-12-01T17:27:32Z</time>
					</trkpt>
					<trkpt lat="43.750530" lon="6.330490">
						<ele>855</ele>
						<time>2021-12-01T17:29:10Z</time>
					</trkpt>
					<trkpt lat="43.751250" lon="6.330700">
						<ele>857</ele>
						<time>2021-12-01T17:30:48Z</time>
					</trkpt>
					<trkpt lat="43.751460" lon="6.330320">
						<ele>853</ele>
						<time>2021-12-01T17:31:35Z</time>
					</trkpt>
					<trkpt lat="43.751320" lon="6.329650">
						<ele>843</ele>
						<time>2021-12-01T17:32:42Z</time>
					</trkpt>
					<trkpt lat="43.751910" lon="6.328360">
						<ele>839</ele>
						<time>2021-12-01T17:35:09Z</time>
					</trkpt>
					<trkpt lat="43.752490" lon="6.328580">
						<ele>867</ele>
						<time>2021-12-01T17:36:29Z</time>
					</trkpt>
					<trkpt lat="43.753210" lon="6.328430">
						<ele>879</ele>
						<time>2021-12-01T17:38:06Z</time>
					</trkpt>
					<trkpt lat="43.753380" lon="6.327080">
						<ele>843</ele>
						<time>2021-12-01T17:40:18Z</time>
					</trkpt>
					<trkpt lat="43.754010" lon="6.326860">
						<ele>871</ele>
						<time>2021-12-01T17:41:45Z</time>
					</trkpt>
					<trkpt lat="43.754180" lon="6.326500">
						<ele>866</ele>
						<time>2021-12-01T17:42:27Z</time>
					</trkpt>
					<trkpt lat="43.754120" lon="6.326000">
						<ele>845</ele>
						<time>2021-12-01T17:43:15Z</time>
					</trkpt>
					<trkpt lat="43.755160" lon="6.325300">
						<ele>848</ele>
						<time>2021-12-01T17:45:50Z</time>
					</trkpt>
					<trkpt lat="43.755950" lon="6.324330">
						<ele>842</ele>
						<time>2021-12-01T17:48:11Z</time>
					</trkpt>
					<trkpt lat="43.756060" lon="6.323090">
						<ele>835</ele>
						<time>2021-12-01T17:50:11Z</time>
					</trkpt>
					<trkpt lat="43.756010" lon="6.321450">
						<ele>824</ele>
						<time>2021-12-01T17:52:49Z</time>
					</trkpt>
					<trkpt lat="43.755830" lon="6.320680">
						<ele>829</ele>
						<time>2021-12-01T17:54:07Z</time>
					</trkpt>
					<trkpt lat="43.755900" lon="6.320320">
						<ele>829</ele>
						<time>2021-12-01T17:54:43Z</time>
					</trkpt>
					<trkpt lat="43.756680" lon="6.320730">
						<ele>829</ele>
						<time>2021-12-01T17:56:35Z</time>
					</trkpt>
					<trkpt lat="43.757140" lon="6.320880">
						<ele>830</ele>
						<time>2021-12-01T17:57:38Z</time>
					</trkpt>
					<trkpt lat="43.757800" lon="6.320600">
						<ele>821</ele>
						<time>2021-12-01T17:59:10Z</time>
					</trkpt>
					<trkpt lat="43.758510" lon="6.319610">
						<ele>782</ele>
						<time>2021-12-01T18:01:24Z</time>
					</trkpt>
					<trkpt lat="43.759080" lon="6.319910">
						<ele>812</ele>
						<time>2021-12-01T18:02:46Z</time>
					</trkpt>
					<trkpt lat="43.759860" lon="6.319140">
						<ele>809</ele>
						<time>2021-12-01T18:04:53Z</time>
					</trkpt>
					<trkpt lat="43.759580" lon="6.317510">
						<ele>776</ele>
						<time>2021-12-01T18:07:35Z</time>
					</trkpt>
					<trkpt lat="43.760310" lon="6.315960">
						<ele>799</ele>
						<time>2021-12-01T18:10:33Z</time>
					</trkpt>
					<trkpt lat="43.761070" lon="6.316480">
						<ele>811</ele>
						<time>2021-12-01T18:12:26Z</time>
					</trkpt>
					<trkpt lat="43.761620" lon="6.316930">
						<ele>826</ele>
						<time>2021-12-01T18:13:52Z</time>
					</trkpt>
					<trkpt lat="43.762480" lon="6.316610">
						<ele>805</ele>
						<time>2021-12-01T18:15:50Z</time>
					</trkpt>
					<trkpt lat="43.762910" lon="6.317460">
						<ele>831</ele>
						<time>2021-12-01T18:17:31Z</time>
					</trkpt>
					<trkpt lat="43.763700" lon="6.317870">
						<ele>819</ele>
						<time>2021-12-01T18:19:23Z</time>
					</trkpt>
					<trkpt lat="43.764650" lon="6.319270">
						<ele>825</ele>
						<time>2021-12-01T18:22:28Z</time>
					</trkpt>
					<trkpt lat="43.764920" lon="6.320170">
						<ele>834</ele>
						<time>2021-12-01T18:24:02Z</time>
					</trkpt>
					<trkpt lat="43.765990" lon="6.321840">
						<ele>836</ele>
						<time>2021-12-01T18:27:37Z</time>
					</trkpt>
					<trkpt lat="43.767020" lon="6.324160">
						<ele>848</ele>
						<time>2021-12-01T18:32:00Z</time>
					</trkpt>
					<trkpt lat="43.767640" lon="6.325640">
						<ele>849</ele>
						<time>2021-12-01T18:34:45Z</time>
					</trkpt>
					<trkpt lat="43.767650" lon="6.326600">
						<ele>860</ele>
						<time>2021-12-01T18:36:17Z</time>
					</trkpt>
					<trkpt lat="43.767900" lon="6.327420">
						<ele>858</ele>
						<time>2021-12-01T18:37:43Z</time>
					</trkpt>
					<trkpt lat="43.767670" lon="6.328130">
						<ele>862</ele>
						<time>2021-12-01T18:38:58Z</time>
					</trkpt>
					<trkpt lat="43.767870" lon="6.328190">
						<ele>860</ele>
						<time>2021-12-01T18:39:25Z</time>
					</trkpt>
					<trkpt lat="43.768150" lon="6.327510">
						<ele>853</ele>
						<time>2021-12-01T18:40:41Z</time>
					</trkpt>
					<trkpt lat="43.768400" lon="6.327610">
						<ele>853</ele>
						<time>2021-12-01T18:41:15Z</time>
					</trkpt>
					<trkpt lat="43.768040" lon="6.328710">
						<ele>861</ele>
						<time>2021-12-01T18:43:12Z</time>
					</trkpt>
					<trkpt lat="43.768210" lon="6.329950">
						<ele>866</ele>
						<time>2021-12-01T18:45:13Z</time>
					</trkpt>
					<trkpt lat="43.769420" lon="6.330790">
						<ele>875</ele>
						<time>2021-12-01T18:48:14Z</time>
					</trkpt>
					<trkpt lat="43.770410" lon="6.332050">
						<ele>884</ele>
						<time>2021-12-01T18:51:13Z</time>
					</trkpt>
					<trkpt lat="43.771360" lon="6.334220">
						<ele>888</ele>
						<time>2021-12-01T18:55:18Z</time>
					</trkpt>
					<trkpt lat="43.771590" lon="6.334630">
						<ele>888</ele>
						<time>2021-12-01T18:56:08Z</time>
					</trkpt>
					<trkpt lat="43.772130" lon="6.334930">
						<ele>895</ele>
						<time>2021-12-01T18:57:26Z</time>
					</trkpt>
					<trkpt lat="43.772420" lon="6.335960">
						<ele>894</ele>
						<time>2021-12-01T18:59:12Z</time>
					</trkpt>
					<trkpt lat="43.773070" lon="6.335980">
						<ele>902</ele>
						<time>2021-12-01T19:00:39Z</time>
					</trkpt>
					<trkpt lat="43.773480" lon="6.336690">
						<ele>905</ele>
						<time>2021-12-01T19:02:07Z</time>
					</trkpt>
					<trkpt lat="43.774890" lon="6.337310">
						<ele>921</ele>
						<time>2021-12-01T19:05:24Z</time>
					</trkpt>
					<trkpt lat="43.775170" lon="6.337030">
						<ele>927</ele>
						<time>2021-12-01T19:06:10Z</time>
					</trkpt>
					<trkpt lat="43.775380" lon="6.337380">
						<ele>926</ele>
						<time>2021-12-01T19:06:54Z</time>
					</trkpt>
					<trkpt lat="43.777440" lon="6.338410">
						<ele>940</ele>
						<time>2021-12-01T19:11:46Z</time>
					</trkpt>
					<trkpt lat="43.778820" lon="6.338790">
						<ele>941</ele>
						<time>2021-12-01T19:14:54Z</time>
					</trkpt>
					<trkpt lat="43.779580" lon="6.339690">
						<ele>936</ele>
						<time>2021-12-01T19:17:07Z</time>
					</trkpt>
					<trkpt lat="43.780170" lon="6.337680">
						<ele>954</ele>
						<time>2021-12-01T19:20:36Z</time>
					</trkpt>
					<trkpt lat="43.780430" lon="6.336950">
						<ele>965</ele>
						<time>2021-12-01T19:21:55Z</time>
					</trkpt>
					<trkpt lat="43.781180" lon="6.336000">
						<ele>995</ele>
						<time>2021-12-01T19:24:11Z</time>
					</trkpt>
					<trkpt lat="43.781970" lon="6.334310">
						<ele>1035</ele>
						<time>2021-12-01T19:27:24Z</time>
					</trkpt>
					<trkpt lat="43.781810" lon="6.331200">
						<ele>1069</ele>
						<time>2021-12-01T19:32:25Z</time>
					</trkpt>
					<trkpt lat="43.781180" lon="6.328450">
						<ele>1115</ele>
						<time>2021-12-01T19:37:03Z</time>
					</trkpt>
					<trkpt lat="43.781350" lon="6.328300">
						<ele>1120</ele>
						<time>2021-12-01T19:37:30Z</time>
					</trkpt>
					<trkpt lat="43.781390" lon="6.328000">
						<ele>1130</ele>
						<time>2021-12-01T19:37:59Z</time>
					</trkpt>
					<trkpt lat="43.781770" lon="6.328150">
						<ele>1133</ele>
						<time>2021-12-01T19:38:52Z</time>
					</trkpt>
					<trkpt lat="43.780960" lon="6.327060">
						<ele>1152</ele>
						<time>2021-12-01T19:41:23Z</time>
					</trkpt>
					<trkpt lat="43.781190" lon="6.326750">
						<ele>1167</ele>
						<time>2021-12-01T19:42:05Z</time>
					</trkpt>
					<trkpt lat="43.780480" lon="6.326260">
						<ele>1175</ele>
						<time>2021-12-01T19:43:51Z</time>
					</trkpt>
					<trkpt lat="43.780000" lon="6.326110">
						<ele>1180</ele>
						<time>2021-12-01T19:44:57Z</time>
					</trkpt>
					<trkpt lat="43.778230" lon="6.323490">
						<ele>1212</ele>
						<time>2021-12-01T19:50:43Z</time>
					</trkpt>
					<trkpt lat="43.777960" lon="6.322610">
						<ele>1222</ele>
						<time>2021-12-01T19:52:15Z</time>
					</trkpt>
					<trkpt lat="43.776780" lon="6.319240">
						<ele>1256</ele>
						<time>2021-12-01T19:58:16Z</time>
					</trkpt>
					<trkpt lat="43.776380" lon="6.318820">
						<ele>1249</ele>
						<time>2021-12-01T19:59:23Z</time>
					</trkpt>
					<trkpt lat="43.776100" lon="6.317790">
						<ele>1263</ele>
						<time>2021-12-01T20:01:09Z</time>
					</trkpt>
					<trkpt lat="43.776280" lon="6.317140">
						<ele>1287</ele>
						<time>2021-12-01T20:02:16Z</time>
					</trkpt>
					<trkpt lat="43.775480" lon="6.316220">
						<ele>1277</ele>
						<time>2021-12-01T20:04:35Z</time>
					</trkpt>
					<trkpt lat="43.775320" lon="6.314780">
						<ele>1301</ele>
						<time>2021-12-01T20:06:55Z</time>
					</trkpt>
					<trkpt lat="43.775600" lon="6.313670">
						<ele>1318</ele>
						<time>2021-12-01T20:08:48Z</time>
					</trkpt>
					<trkpt lat="43.776140" lon="6.311030">
						<ele>1325</ele>
						<time>2021-12-01T20:13:13Z</time>
					</trkpt>
					<trkpt lat="43.777270" lon="6.309740">
						<ele>1369</ele>
						<time>2021-12-01T20:16:28Z</time>
					</trkpt>
					<trkpt lat="43.777430" lon="6.309100">
						<ele>1374</ele>
						<time>2021-12-01T20:17:33Z</time>
					</trkpt>
					<trkpt lat="43.777410" lon="6.308340">
						<ele>1372</ele>
						<time>2021-12-01T20:18:47Z</time>
					</trkpt>
					<trkpt lat="43.778980" lon="6.306820">
						<ele>1375</ele>
						<time>2021-12-01T20:23:02Z</time>
					</trkpt>
					<trkpt lat="43.779290" lon="6.305920">
						<ele>1363</ele>
						<time>2021-12-01T20:24:38Z</time>
					</trkpt>
					<trkpt lat="43.779210" lon="6.305700">
						<ele>1359</ele>
						<time>2021-12-01T20:25:02Z</time>
					</trkpt>
					<trkpt lat="43.779680" lon="6.305320">
						<ele>1351</ele>
						<time>2021-12-01T20:26:15Z</time>
					</trkpt>
					<trkpt lat="43.780200" lon="6.304740">
						<ele>1341</ele>
						<time>2021-12-01T20:27:44Z</time>
					</trkpt>
					<trkpt lat="43.781910" lon="6.304070">
						<ele>1314</ele>
						<time>2021-12-01T20:31:41Z</time>
					</trkpt>
					<trkpt lat="43.782770" lon="6.302310">
						<ele>1279</ele>
						<time>2021-12-01T20:35:06Z</time>
					</trkpt>
					<trkpt lat="43.783190" lon="6.302060">
						<ele>1272</ele>
						<time>2021-12-01T20:36:07Z</time>
					</trkpt>
					<trkpt lat="43.783550" lon="6.301800">
						<ele>1265</ele>
						<time>2021-12-01T20:37:01Z</time>
					</trkpt>
					<trkpt lat="43.784430" lon="6.302290">
						<ele>1254</ele>
						<time>2021-12-01T20:39:07Z</time>
					</trkpt>
					<trkpt lat="43.784770" lon="6.302720">
						<ele>1253</ele>
						<time>2021-12-01T20:40:09Z</time>
					</trkpt>
					<trkpt lat="43.785270" lon="6.302400">
						<ele>1243</ele>
						<time>2021-12-01T20:41:22Z</time>
					</trkpt>
					<trkpt lat="43.786040" lon="6.301950">
						<ele>1232</ele>
						<time>2021-12-01T20:43:14Z</time>
					</trkpt>
					<trkpt lat="43.786150" lon="6.301110">
						<ele>1224</ele>
						<time>2021-12-01T20:44:36Z</time>
					</trkpt>
					<trkpt lat="43.785520" lon="6.299950">
						<ele>1215</ele>
						<time>2021-12-01T20:46:56Z</time>
					</trkpt>
					<trkpt lat="43.784570" lon="6.299270">
						<ele>1215</ele>
						<time>2021-12-01T20:49:19Z</time>
					</trkpt>
					<trkpt lat="43.783940" lon="6.298410">
						<ele>1213</ele>
						<time>2021-12-01T20:51:17Z</time>
					</trkpt>
					<trkpt lat="43.783580" lon="6.297340">
						<ele>1209</ele>
						<time>2021-12-01T20:53:10Z</time>
					</trkpt>
					<trkpt lat="43.783240" lon="6.296780">
						<ele>1207</ele>
						<time>2021-12-01T20:54:21Z</time>
					</trkpt>
					<trkpt lat="43.784070" lon="6.295580">
						<ele>1209</ele>
						<time>2021-12-01T20:57:01Z</time>
					</trkpt>
					<trkpt lat="43.784060" lon="6.294950">
						<ele>1209</ele>
						<time>2021-12-01T20:58:02Z</time>
					</trkpt>
					<trkpt lat="43.784790" lon="6.293920">
						<ele>1221</ele>
						<time>2021-12-01T21:00:21Z</time>
					</trkpt>
					<trkpt lat="43.785170" lon="6.292770">
						<ele>1223</ele>
						<time>2021-12-01T21:02:23Z</time>
					</trkpt>
					<trkpt lat="43.785830" lon="6.292400">
						<ele>1226</ele>
						<time>2021-12-01T21:03:58Z</time>
					</trkpt>
					<trkpt lat="43.786880" lon="6.292380">
						<ele>1217</ele>
						<time>2021-12-01T21:06:18Z</time>
					</trkpt>
					<trkpt lat="43.787330" lon="6.292320">
						<ele>1213</ele>
						<time>2021-12-01T21:07:18Z</time>
					</trkpt>
					<trkpt lat="43.787680" lon="6.291610">
						<ele>1206</ele>
						<time>2021-12-01T21:08:41Z</time>
					</trkpt>
					<trkpt lat="43.788240" lon="6.291690">
						<ele>1205</ele>
						<time>2021-12-01T21:09:56Z</time>
					</trkpt>
					<trkpt lat="43.788850" lon="6.291050">
						<ele>1208</ele>
						<time>2021-12-01T21:11:38Z</time>
					</trkpt>
					<trkpt lat="43.789510" lon="6.289460">
						<ele>1217</ele>
						<time>2021-12-01T21:14:35Z</time>
					</trkpt>
					<trkpt lat="43.789910" lon="6.289030">
						<ele>1221</ele>
						<time>2021-12-01T21:15:42Z</time>
					</trkpt>
					<trkpt lat="43.790070" lon="6.288130">
						<ele>1223</ele>
						<time>2021-12-01T21:17:12Z</time>
					</trkpt>
					<trkpt lat="43.791030" lon="6.287290">
						<ele>1221</ele>
						<time>2021-12-01T21:19:43Z</time>
					</trkpt>
					<trkpt lat="43.791800" lon="6.287230">
						<ele>1217</ele>
						<time>2021-12-01T21:21:26Z</time>
					</trkpt>
					<trkpt lat="43.792070" lon="6.286610">
						<ele>1215</ele>
						<time>2021-12-01T21:22:36Z</time>
					</trkpt>
					<trkpt lat="43.793680" lon="6.284120">
						<ele>1210</ele>
						<time>2021-12-01T21:27:58Z</time>
					</trkpt>
					<trkpt lat="43.793940" lon="6.282250">
						<ele>1207</ele>
						<time>2021-12-01T21:31:01Z</time>
					</trkpt>
					<trkpt lat="43.794590" lon="6.280060">
						<ele>1204</ele>
						<time>2021-12-01T21:34:49Z</time>
					</trkpt>
					<trkpt lat="43.794620" lon="6.278950">
						<ele>1202</ele>
						<time>2021-12-01T21:36:36Z</time>
					</trkpt>
					<trkpt lat="43.795030" lon="6.278110">
						<ele>1205</ele>
						<time>2021-12-01T21:38:14Z</time>
					</trkpt>
					<trkpt lat="43.795100" lon="6.277530">
						<ele>1209</ele>
						<time>2021-12-01T21:39:11Z</time>
					</trkpt>
					<trkpt lat="43.795800" lon="6.276290">
						<ele>1209</ele>
						<time>2021-12-01T21:41:42Z</time>
					</trkpt>
					<trkpt lat="43.796310" lon="6.275390">
						<ele>1213</ele>
						<time>2021-12-01T21:43:33Z</time>
					</trkpt>
					<trkpt lat="43.797240" lon="6.274910">
						<ele>1214</ele>
						<time>2021-12-01T21:45:45Z</time>
					</trkpt>
					<trkpt lat="43.797850" lon="6.273900">
						<ele>1216</ele>
						<time>2021-12-01T21:47:52Z</time>
					</trkpt>
					<trkpt lat="43.798760" lon="6.272850">
						<ele>1209</ele>
						<time>2021-12-01T21:50:30Z</time>
					</trkpt>
					<trkpt lat="43.799490" lon="6.271440">
						<ele>1209</ele>
						<time>2021-12-01T21:53:17Z</time>
					</trkpt>
					<trkpt lat="43.800900" lon="6.270040">
						<ele>1202</ele>
						<time>2021-12-01T21:57:08Z</time>
					</trkpt>
					<trkpt lat="43.802240" lon="6.269420">
						<ele>1199</ele>
						<time>2021-12-01T22:00:17Z</time>
					</trkpt>
					<trkpt lat="43.803000" lon="6.268580">
						<ele>1195</ele>
						<time>2021-12-01T22:02:27Z</time>
					</trkpt>
					<trkpt lat="43.803850" lon="6.267870">
						<ele>1184</ele>
						<time>2021-12-01T22:04:39Z</time>
					</trkpt>
					<trkpt lat="43.804850" lon="6.266270">
						<ele>1160</ele>
						<time>2021-12-01T22:08:03Z</time>
					</trkpt>
					<trkpt lat="43.806100" lon="6.265280">
						<ele>1174</ele>
						<time>2021-12-01T22:11:15Z</time>
					</trkpt>
					<trkpt lat="43.807820" lon="6.264440">
						<ele>1168</ele>
						<time>2021-12-01T22:15:19Z</time>
					</trkpt>
					<trkpt lat="43.809370" lon="6.264940">
						<ele>1147</ele>
						<time>2021-12-01T22:18:51Z</time>
					</trkpt>
					<trkpt lat="43.812340" lon="6.264760">
						<ele>1086</ele>
						<time>2021-12-01T22:25:28Z</time>
					</trkpt>
					<trkpt lat="43.815020" lon="6.263630">
						<ele>1120</ele>
						<time>2021-12-01T22:31:41Z</time>
					</trkpt>
					<trkpt lat="43.815480" lon="6.263600">
						<ele>1126</ele>
						<time>2021-12-01T22:32:43Z</time>
					</trkpt>
					<trkpt lat="43.815590" lon="6.262900">
						<ele>1152</ele>
						<time>2021-12-01T22:33:52Z</time>
					</trkpt>
					<trkpt lat="43.815870" lon="6.262470">
						<ele>1172</ele>
						<time>2021-12-01T22:34:48Z</time>
					</trkpt>
					<trkpt lat="43.816400" lon="6.261970">
						<ele>1183</ele>
						<time>2021-12-01T22:36:13Z</time>
					</trkpt>
					<trkpt lat="43.816880" lon="6.262170">
						<ele>1194</ele>
						<time>2021-12-01T22:37:20Z</time>
					</trkpt>
					<trkpt lat="43.816910" lon="6.261800">
						<ele>1196</ele>
						<time>2021-12-01T22:37:56Z</time>
					</trkpt>
					<trkpt lat="43.817590" lon="6.261350">
						<ele>1199</ele>
						<time>2021-12-01T22:39:37Z</time>
					</trkpt>
					<trkpt lat="43.818160" lon="6.260560">
						<ele>1196</ele>
						<time>2021-12-01T22:41:24Z</time>
					</trkpt>
					<trkpt lat="43.818020" lon="6.260040">
						<ele>1186</ele>
						<time>2021-12-01T22:42:18Z</time>
					</trkpt>
					<trkpt lat="43.818100" lon="6.259720">
						<ele>1184</ele>
						<time>2021-12-01T22:42:50Z</time>
					</trkpt>
					<trkpt lat="43.817930" lon="6.259360">
						<ele>1171</ele>
						<time>2021-12-01T22:43:32Z</time>
					</trkpt>
					<trkpt lat="43.818420" lon="6.258800">
						<ele>1177</ele>
						<time>2021-12-01T22:44:56Z</time>
					</trkpt>
					<trkpt lat="43.819000" lon="6.258110">
						<ele>1154</ele>
						<time>2021-12-01T22:46:38Z</time>
					</trkpt>
					<trkpt lat="43.819170" lon="6.257250">
						<ele>1127</ele>
						<time>2021-12-01T22:48:04Z</time>
					</trkpt>
					<trkpt lat="43.819660" lon="6.256030">
						<ele>1077</ele>
						<time>2021-12-01T22:50:19Z</time>
					</trkpt>
					<trkpt lat="43.819620" lon="6.255430">
						<ele>1053</ele>
						<time>2021-12-01T22:51:17Z</time>
					</trkpt>
					<trkpt lat="43.820300" lon="6.254490">
						<ele>1042</ele>
						<time>2021-12-01T22:53:25Z</time>
					</trkpt>
					<trkpt lat="43.820790" lon="6.252550">
						<ele>1008</ele>
						<time>2021-12-01T22:56:43Z</time>
					</trkpt>
					<trkpt lat="43.821260" lon="6.251890">
						<ele>1001</ele>
						<time>2021-12-01T22:58:12Z</time>
					</trkpt>
					<trkpt lat="43.821830" lon="6.251480">
						<ele>1006</ele>
						<time>2021-12-01T22:59:38Z</time>
					</trkpt>
					<trkpt lat="43.822200" lon="6.249640">
						<ele>995</ele>
						<time>2021-12-01T23:02:42Z</time>
					</trkpt>
					<trkpt lat="43.822110" lon="6.248860">
						<ele>985</ele>
						<time>2021-12-01T23:03:58Z</time>
					</trkpt>
					<trkpt lat="43.822140" lon="6.248110">
						<ele>974</ele>
						<time>2021-12-01T23:05:10Z</time>
					</trkpt>
					<trkpt lat="43.822030" lon="6.247530">
						<ele>962</ele>
						<time>2021-12-01T23:06:08Z</time>
					</trkpt>
					<trkpt lat="43.822670" lon="6.244230">
						<ele>956</ele>
						<time>2021-12-01T23:11:37Z</time>
					</trkpt>
					<trkpt lat="43.822560" lon="6.242940">
						<ele>949</ele>
						<time>2021-12-01T23:13:42Z</time>
					</trkpt>
					<trkpt lat="43.822780" lon="6.242250">
						<ele>942</ele>
						<time>2021-12-01T23:14:54Z</time>
					</trkpt>
					<trkpt lat="43.822870" lon="6.241650">
						<ele>934</ele>
						<time>2021-12-01T23:15:53Z</time>
					</trkpt>
					<trkpt lat="43.823130" lon="6.240770">
						<ele>925</ele>
						<time>2021-12-01T23:17:25Z</time>
					</trkpt>
					<trkpt lat="43.822960" lon="6.240170">
						<ele>897</ele>
						<time>2021-12-01T23:18:27Z</time>
					</trkpt>
					<trkpt lat="43.822620" lon="6.240280">
						<ele>887</ele>
						<time>2021-12-01T23:19:14Z</time>
					</trkpt>
					<trkpt lat="43.823040" lon="6.239210">
						<ele>861</ele>
						<time>2021-12-01T23:21:11Z</time>
					</trkpt>
					<trkpt lat="43.823550" lon="6.239100">
						<ele>869</ele>
						<time>2021-12-01T23:22:20Z</time>
					</trkpt>
					<trkpt lat="43.823690" lon="6.239290">
						<ele>879</ele>
						<time>2021-12-01T23:22:46Z</time>
					</trkpt>
					<trkpt lat="43.824220" lon="6.238670">
						<ele>857</ele>
						<time>2021-12-01T23:24:18Z</time>
					</trkpt>
					<trkpt lat="43.824030" lon="6.238520">
						<ele>844</ele>
						<time>2021-12-01T23:24:48Z</time>
					</trkpt>
					<trkpt lat="43.824060" lon="6.238070">
						<ele>815</ele>
						<time>2021-12-01T23:25:31Z</time>
					</trkpt>
					<trkpt lat="43.824540" lon="6.238200">
						<ele>849</ele>
						<time>2021-12-01T23:26:36Z</time>
					</trkpt>
					<trkpt lat="43.825130" lon="6.237580">
						<ele>823</ele>
						<time>2021-12-01T23:28:15Z</time>
					</trkpt>
					<trkpt lat="43.825440" lon="6.236610">
						<ele>787</ele>
						<time>2021-12-01T23:29:57Z</time>
					</trkpt>
					<trkpt lat="43.826010" lon="6.235560">
						<ele>760</ele>
						<time>2021-12-01T23:32:04Z</time>
					</trkpt>
					<trkpt lat="43.826490" lon="6.235320">
						<ele>752</ele>
						<time>2021-12-01T23:33:12Z</time>
					</trkpt>
					<trkpt lat="43.826880" lon="6.234890">
						<ele>734</ele>
						<time>2021-12-01T23:34:18Z</time>
					</trkpt>
					<trkpt lat="43.826770" lon="6.234470">
						<ele>719</ele>
						<time>2021-12-01T23:35:01Z</time>
					</trkpt>
					<trkpt lat="43.827060" lon="6.233540">
						<ele>688</ele>
						<time>2021-12-01T23:36:39Z</time>
					</trkpt>
					<trkpt lat="43.827590" lon="6.231480">
						<ele>631</ele>
						<time>2021-12-01T23:40:10Z</time>
					</trkpt>
					<trkpt lat="43.827540" lon="6.230900">
						<ele>617</ele>
						<time>2021-12-01T23:41:06Z</time>
					</trkpt>
					<trkpt lat="43.827540" lon="6.230240">
						<ele>601</ele>
						<time>2021-12-01T23:42:09Z</time>
					</trkpt>
					<trkpt lat="43.828270" lon="6.228160">
						<ele>565</ele>
						<time>2021-12-01T23:45:52Z</time>
					</trkpt>
					<trkpt lat="43.828020" lon="6.227860">
						<ele>563</ele>
						<time>2021-12-01T23:46:36Z</time>
					</trkpt>
					<trkpt lat="43.828330" lon="6.227080">
						<ele>554</ele>
						<time>2021-12-01T23:48:02Z</time>
					</trkpt>
					<trkpt lat="43.828190" lon="6.226890">
						<ele>552</ele>
						<time>2021-12-01T23:48:28Z</time>
					</trkpt>
					<trkpt lat="43.828360" lon="6.226550">
						<ele>548</ele>
						<time>2021-12-01T23:49:08Z</time>
					</trkpt>
					<trkpt lat="43.828180" lon="6.226030">
						<ele>542</ele>
						<time>2021-12-01T23:50:03Z</time>
					</trkpt>
					<trkpt lat="43.828410" lon="6.225650">
						<ele>535</ele>
						<time>2021-12-01T23:50:51Z</time>
					</trkpt>
					<trkpt lat="43.827960" lon="6.224750">
						<ele>529</ele>
						<time>2021-12-01T23:52:37Z</time>
					</trkpt>
					<trkpt lat="43.830720" lon="6.225090">
						<ele>527</ele>
						<time>2021-12-01T23:58:46Z</time>
					</trkpt>
					<trkpt lat="43.832880" lon="6.222170">
						<ele>533</ele>
						<time>2021-12-02T00:05:29Z</time>
					</trkpt>
					<trkpt lat="43.832260" lon="6.221270">
						<ele>529</ele>
						<time>2021-12-02T00:07:29Z</time>
					</trkpt>
					<trkpt lat="43.831240" lon="6.221100">
						<ele>526</ele>
						<time>2021-12-02T00:09:46Z</time>
					</trkpt>
					<trkpt lat="43.830960" lon="6.220410">
						<ele>527</ele>
						<time>2021-12-02T00:11:02Z</time>
					</trkpt>
					<trkpt lat="43.832790" lon="6.219210">
						<ele>528</ele>
						<time>2021-12-02T00:15:32Z</time>
					</trkpt>
					<trkpt lat="43.835170" lon="6.217920">
						<ele>538</ele>
						<time>2021-12-02T00:21:13Z</time>
					</trkpt>
					<trkpt lat="43.836660" lon="6.216770">
						<ele>541</ele>
						<time>2021-12-02T00:25:01Z</time>
					</trkpt>
					<trkpt lat="43.836940" lon="6.217060">
						<ele>543</ele>
						<time>2021-12-02T00:25:47Z</time>
					</trkpt>
					<trkpt lat="43.837790" lon="6.217140">
						<ele>546</ele>
						<time>2021-12-02T00:27:41Z</time>
					</trkpt>
					<trkpt lat="43.838310" lon="6.217070">
						<ele>549</ele>
						<time>2021-12-02T00:28:51Z</time>
					</trkpt>
					<trkpt lat="43.838850" lon="6.217340">
						<ele>553</ele>
						<time>2021-12-02T00:30:07Z</time>
					</trkpt>
					<trkpt lat="43.839990" lon="6.217870">
						<ele>555</ele>
						<time>2021-12-02T00:32:48Z</time>
					</trkpt>
					<trkpt lat="43.841950" lon="6.218350">
						<ele>564</ele>
						<time>2021-12-02T00:37:14Z</time>
					</trkpt>
					<trkpt lat="43.843440" lon="6.219210">
						<ele>578</ele>
						<time>2021-12-02T00:40:49Z</time>
					</trkpt>
					<trkpt lat="43.843470" lon="6.219500">
						<ele>582</ele>
						<time>2021-12-02T00:41:17Z</time>
					</trkpt>
					<trkpt lat="43.844520" lon="6.220580">
						<ele>604</ele>
						<time>2021-12-02T00:44:12Z</time>
					</trkpt>
					<trkpt lat="43.845070" lon="6.220870">
						<ele>613</ele>
						<time>2021-12-02T00:45:30Z</time>
					</trkpt>
					<trkpt lat="43.845690" lon="6.221090">
						<ele>619</ele>
						<time>2021-12-02T00:46:55Z</time>
					</trkpt>
					<trkpt lat="43.845490" lon="6.221140">
						<ele>620</ele>
						<time>2021-12-02T00:47:23Z</time>
					</trkpt>
					<trkpt lat="43.845470" lon="6.221200">
						<ele>622</ele>
						<time>2021-12-02T00:47:29Z</time>
					</trkpt>
					<trkpt lat="43.846090" lon="6.221400">
						<ele>628</ele>
						<time>2021-12-02T00:48:54Z</time>
					</trkpt>
					<trkpt lat="43.846280" lon="6.221340">
						<ele>626</ele>
						<time>2021-12-02T00:49:20Z</time>
					</trkpt>
					<trkpt lat="43.846800" lon="6.221620">
						<ele>635</ele>
						<time>2021-12-02T00:50:34Z</time>
					</trkpt>
					<trkpt lat="43.846980" lon="6.221480">
						<ele>633</ele>
						<time>2021-12-02T00:51:02Z</time>
					</trkpt>
					<trkpt lat="43.847080" lon="6.221340">
						<ele>631</ele>
						<time>2021-12-02T00:51:21Z</time>
					</trkpt>
					<trkpt lat="43.847250" lon="6.221490">
						<ele>635</ele>
						<time>2021-12-02T00:51:48Z</time>
					</trkpt>
					<trkpt lat="43.847320" lon="6.221750">
						<ele>640</ele>
						<time>2021-12-02T00:52:14Z</time>
					</trkpt>
					</trkseg>
				</trk>
			</gpx>